Terminal Aerodrome Forecast
Issued by NWS

Home | Current Version | Previous Version | Text Only | Print | Product List | Glossary On
Versions: 1 2 3 4 5 6 7 8 9 10 11 12 13 14 15 16 17 18 19 20 21 22 23
000
FTUS43 KAPX 240537
TAFAPN
TAF
KAPN 240537Z 2406/2506 VRB03KT 2SM BR OVC002
      TEMPO 2406/2408 12003KT 1SM BR
     FM240800 VRB03KT 1SM BR OVC002
      TEMPO 2409/2413 1/4SM FG
     FM241400 04004KT 3SM BR OVC005
     FM241600 06008KT P6SM VCSH OVC015
     FM241800 06009KT P6SM VCSH OVC025
     FM242000 05010KT P6SM VCSH BKN045=

USA.gov is the U.S. government's official web portal to all federal, state and local government web resources and services.